createdAt,value
2018-10-06T00:01:27.252Z,15.13
2018-10-06T00:03:56.415Z,13.70
2018-10-06T00:06:25.487Z,14.10
2018-10-06T00:08:54.583Z,13.60
2018-10-06T00:11:23.688Z,14.77
2018-10-06T00:13:52.728Z,13.43
2018-10-06T00:16:21.628Z,13.80
2018-10-06T00:18:50.500Z,13.83
2018-10-06T00:21:19.403Z,12.77
2018-10-06T00:23:48.354Z,13.83
2018-10-06T00:26:17.317Z,13.17
2018-10-06T00:28:46.197Z,14.17
2018-10-06T00:31:15.144Z,14.07
2018-10-06T00:33:44.140Z,13.20
2018-10-06T00:36:13.133Z,13.37
2018-10-06T00:38:42.010Z,13.97
2018-10-06T00:41:10.908Z,14.93
2018-10-06T00:43:39.852Z,13.90
2018-10-06T00:46:08.765Z,13.47
2018-10-06T00:48:37.813Z,13.67
2018-10-06T00:51:06.793Z,14.00
2018-10-06T00:53:35.905Z,14.17
2018-10-06T00:56:04.802Z,13.63
2018-10-06T00:58:33.732Z,13.53
2018-10-06T01:01:02.615Z,13.83
2018-10-06T01:03:31.504Z,13.77
2018-10-06T01:06:00.393Z,13.53
2018-10-06T01:08:29.589Z,15.00
2018-10-06T01:10:58.496Z,14.37
2018-10-06T01:13:27.545Z,14.60
2018-10-06T01:15:56.547Z,14.20
2018-10-06T01:18:25.504Z,14.70
2018-10-06T01:20:54.418Z,15.47
2018-10-06T01:23:23.364Z,15.07
2018-10-06T01:25:52.283Z,14.53
2018-10-06T01:28:21.203Z,14.60
2018-10-06T01:30:50.139Z,14.57
2018-10-06T01:33:19.121Z,14.73
2018-10-06T01:35:48.230Z,14.90
2018-10-06T01:38:17.130Z,15.33
2018-10-06T01:40:47.028Z,14.83
2018-10-06T01:43:16.448Z,14.03
2018-10-06T01:45:45.328Z,15.30
2018-10-06T01:48:14.224Z,14.10
2018-10-06T01:50:43.154Z,14.37
2018-10-06T01:53:12.083Z,14.93
2018-10-06T01:55:40.986Z,14.17
2018-10-06T01:58:09.892Z,14.53
2018-10-06T02:00:38.836Z,15.30
2018-10-06T02:03:07.738Z,14.23
2018-10-06T02:05:44.818Z,14.53
2018-10-06T02:08:13.766Z,14.50
2018-10-06T02:10:42.654Z,14.97
2018-10-06T02:13:11.621Z,14.67
2018-10-06T02:15:40.591Z,14.40
2018-10-06T02:18:09.482Z,15.17
2018-10-06T02:20:38.424Z,16.63
2018-10-06T02:23:07.648Z,16.13
2018-10-06T02:25:36.618Z,15.20
2018-10-06T02:28:05.564Z,16.03
2018-10-06T02:30:34.484Z,15.50
2018-10-06T02:33:03.475Z,14.80
2018-10-06T02:35:32.510Z,14.77
2018-10-06T02:38:01.463Z,15.47
2018-10-06T02:40:30.372Z,15.73
2018-10-06T02:42:59.272Z,14.97
2018-10-06T02:45:28.343Z,15.47
2018-10-06T02:47:57.261Z,16.13
2018-10-06T02:50:26.235Z,15.90
2018-10-06T02:52:55.225Z,15.27
2018-10-06T02:55:24.122Z,14.23
2018-10-06T02:57:53.128Z,15.30
2018-10-06T03:00:22.116Z,15.90
2018-10-06T03:02:51.073Z,15.43
2018-10-06T03:05:19.946Z,15.67
2018-10-06T03:07:48.834Z,16.03
2018-10-06T03:10:17.758Z,16.37
2018-10-06T03:12:46.624Z,15.80
2018-10-06T03:15:15.522Z,14.23
2018-10-06T03:17:44.423Z,14.83
2018-10-06T03:20:13.296Z,14.93
2018-10-06T03:22:42.192Z,15.17
2018-10-06T03:25:11.168Z,15.17
2018-10-06T03:27:40.106Z,15.33
2018-10-06T03:30:09.003Z,15.73
2018-10-06T03:32:37.966Z,15.20
2018-10-06T03:35:07.154Z,16.43
2018-10-06T03:37:36.092Z,15.33
2018-10-06T03:40:05.032Z,16.10
2018-10-06T03:42:33.935Z,15.33
2018-10-06T03:45:02.866Z,15.37
2018-10-06T03:47:31.764Z,15.90
2018-10-06T03:50:00.650Z,15.80
2018-10-06T03:52:29.617Z,16.80
2018-10-06T03:54:58.540Z,16.00
2018-10-06T03:57:27.456Z,16.70
2018-10-06T03:59:56.353Z,16.53
2018-10-06T04:02:25.287Z,16.93
2018-10-06T04:04:54.179Z,16.57
2018-10-06T04:07:23.878Z,15.90
2018-10-06T04:09:52.795Z,15.43
2018-10-06T04:12:21.901Z,16.40
2018-10-06T04:14:50.796Z,16.77
2018-10-06T04:17:19.790Z,15.53
2018-10-06T04:19:48.723Z,16.07
2018-10-06T04:22:17.674Z,16.40
2018-10-06T04:24:46.677Z,15.73
2018-10-06T04:27:15.554Z,16.93
2018-10-06T04:29:44.494Z,16.30
2018-10-06T04:32:13.452Z,16.47
2018-10-06T04:34:42.322Z,16.37
2018-10-06T04:37:11.237Z,17.57
2018-10-06T04:39:40.139Z,17.03
2018-10-06T04:42:09.058Z,18.33
2018-10-06T04:44:38.013Z,17.03
2018-10-06T04:47:06.891Z,16.03
2018-10-06T04:49:35.827Z,15.93
2018-10-06T04:52:04.755Z,16.07
2018-10-06T04:54:33.630Z,15.20
2018-10-06T04:57:02.551Z,16.37
2018-10-06T04:59:31.517Z,15.37
2018-10-06T05:02:00.401Z,16.53
2018-10-06T05:04:29.365Z,16.53
2018-10-06T05:06:58.391Z,15.23
2018-10-06T05:09:27.447Z,15.90
2018-10-06T05:11:56.411Z,16.00
2018-10-06T05:14:25.262Z,16.90
2018-10-06T05:16:54.127Z,16.63
2018-10-06T05:19:23.060Z,17.03
2018-10-06T05:21:52.067Z,17.33
2018-10-06T05:24:20.963Z,16.97
2018-10-06T05:26:49.869Z,17.83
2018-10-06T05:29:18.803Z,16.77
2018-10-06T05:31:47.701Z,17.00
2018-10-06T05:34:16.767Z,17.40
2018-10-06T05:36:45.587Z,18.20
2018-10-06T05:39:14.480Z,19.27
2018-10-06T05:41:43.430Z,17.97
2018-10-06T05:44:12.295Z,17.80
2018-10-06T05:46:41.304Z,17.00
2018-10-06T05:49:10.186Z,18.77
2018-10-06T05:51:39.089Z,17.17
2018-10-06T05:54:08.075Z,17.43
2018-10-06T05:56:36.976Z,16.97
2018-10-06T05:59:07.108Z,17.70
2018-10-06T06:01:36.011Z,17.07
2018-10-06T06:04:04.943Z,17.23
2018-10-06T06:06:33.924Z,17.40
2018-10-06T06:09:02.827Z,17.07
2018-10-06T06:11:31.741Z,17.20
2018-10-06T06:14:01.661Z,17.40
2018-10-06T06:16:31.604Z,16.10
2018-10-06T06:19:00.568Z,15.30
2018-10-06T06:21:29.471Z,16.00
2018-10-06T06:23:58.445Z,16.20
2018-10-06T06:26:27.253Z,15.60
2018-10-06T06:28:56.153Z,15.73
2018-10-06T06:31:25.163Z,16.90
2018-10-06T06:33:54.035Z,15.93
2018-10-06T06:36:22.932Z,16.07
2018-10-06T06:38:51.855Z,15.57
2018-10-06T06:41:20.791Z,16.03
2018-10-06T06:43:49.745Z,14.67
2018-10-06T06:46:18.684Z,14.00
2018-10-06T06:48:47.703Z,14.23
2018-10-06T06:51:16.727Z,15.73
2018-10-06T06:53:45.616Z,15.07
2018-10-06T06:56:14.484Z,14.43
2018-10-06T06:58:43.397Z,14.83
2018-10-06T07:01:12.356Z,14.47
2018-10-06T07:03:41.280Z,13.40
2018-10-06T07:06:10.189Z,13.87
2018-10-06T07:08:39.109Z,13.70
2018-10-06T07:11:07.981Z,13.00
2018-10-06T07:13:36.994Z,14.37
2018-10-06T07:16:05.928Z,14.13
2018-10-06T07:18:34.929Z,14.23
2018-10-06T07:21:09.328Z,13.53
2018-10-06T07:23:38.328Z,13.17
2018-10-06T07:26:07.256Z,13.93
2018-10-06T07:28:36.376Z,13.27
2018-10-06T07:31:05.268Z,13.67
2018-10-06T07:33:34.241Z,13.27
2018-10-06T07:36:03.121Z,13.33
2018-10-06T07:38:32.028Z,13.47
2018-10-06T07:41:06.510Z,14.27
2018-10-06T07:43:40.930Z,13.77
2018-10-06T07:46:09.925Z,13.13
2018-10-06T07:48:38.802Z,14.17
2018-10-06T07:51:09.416Z,13.93
2018-10-06T07:53:38.891Z,14.47
2018-10-06T07:56:07.800Z,14.13
2018-10-06T07:58:36.786Z,13.63
2018-10-06T08:01:05.785Z,14.10
2018-10-06T08:03:34.646Z,14.60
2018-10-06T08:06:03.532Z,14.50
2018-10-06T08:08:32.500Z,14.30
2018-10-06T08:11:01.424Z,14.10
2018-10-06T08:13:30.396Z,15.43
2018-10-06T08:15:59.355Z,13.93
2018-10-06T08:18:28.352Z,14.73
2018-10-06T08:20:57.348Z,14.03
2018-10-06T08:23:26.229Z,14.67
2018-10-06T08:25:55.170Z,14.00
2018-10-06T08:28:30.554Z,13.60
2018-10-06T08:31:00.122Z,15.47
2018-10-06T08:33:29.049Z,16.07
2018-10-06T08:35:58.066Z,15.57
2018-10-06T08:38:27.044Z,17.10
2018-10-06T08:40:57.996Z,17.43
2018-10-06T08:43:27.015Z,17.33
2018-10-06T08:45:56.354Z,16.27
2018-10-06T08:48:26.968Z,16.17
2018-10-06T08:50:57.096Z,16.57
2018-10-06T08:53:26.724Z,16.77
2018-10-06T08:55:55.709Z,16.50
2018-10-06T08:58:24.643Z,16.53
2018-10-06T09:00:53.707Z,16.27
2018-10-06T09:03:28.138Z,17.23
2018-10-06T09:05:57.020Z,17.57
2018-10-06T09:08:26.023Z,17.80
2018-10-06T09:10:55.152Z,17.37
2018-10-06T09:13:24.090Z,16.77
2018-10-06T09:15:53.184Z,16.70
2018-10-06T09:18:22.164Z,16.53
2018-10-06T09:20:51.205Z,17.43
2018-10-06T09:23:20.226Z,16.77
2018-10-06T09:25:49.144Z,17.67
2018-10-06T09:28:18.431Z,17.60
2018-10-06T09:30:47.478Z,16.93
2018-10-06T09:33:22.125Z,17.47
2018-10-06T09:35:56.621Z,17.03
2018-10-06T09:38:25.828Z,17.17
2018-10-06T09:40:54.968Z,17.00
2018-10-06T09:43:24.767Z,18.63
2018-10-06T09:45:53.728Z,17.67
2018-10-06T09:48:22.781Z,18.33
2018-10-06T09:50:51.678Z,18.10
2018-10-06T09:53:20.679Z,17.40
2018-10-06T09:55:49.609Z,18.80
2018-10-06T09:58:18.484Z,18.37
2018-10-06T10:00:52.720Z,19.10
2018-10-06T10:03:26.927Z,18.07
2018-10-06T10:06:02.693Z,18.07
2018-10-06T10:08:31.672Z,19.93
2018-10-06T10:11:00.519Z,19.83
2018-10-06T10:13:29.464Z,19.23
2018-10-06T10:15:58.355Z,18.70
2018-10-06T10:18:27.509Z,20.70
2018-10-06T10:20:56.317Z,20.03
2018-10-06T10:23:25.228Z,19.73
2018-10-06T10:25:54.110Z,19.30
2018-10-06T10:28:23.179Z,19.03
2018-10-06T10:30:52.038Z,20.13
2018-10-06T10:33:21.030Z,21.07
2018-10-06T10:35:50.006Z,20.13
2018-10-06T10:38:18.978Z,19.50
2018-10-06T10:40:47.931Z,20.57
2018-10-06T10:43:16.946Z,21.23
2018-10-06T10:45:45.985Z,22.30
2018-10-06T10:48:14.916Z,22.13
2018-10-06T10:50:44.003Z,21.23
2018-10-06T10:53:13.602Z,21.33
2018-10-06T10:55:42.543Z,23.53
2018-10-06T10:58:13.534Z,23.43
2018-10-06T11:00:42.475Z,22.13
2018-10-06T11:03:11.351Z,22.97
2018-10-06T11:05:40.226Z,24.73
2018-10-06T11:08:09.159Z,23.80
2018-10-06T11:10:38.141Z,24.03
2018-10-06T11:13:07.304Z,25.37
2018-10-06T11:15:36.195Z,24.93
2018-10-06T11:18:05.194Z,24.50
2018-10-06T11:20:34.166Z,24.90
2018-10-06T11:23:03.178Z,26.60
2018-10-06T11:25:32.134Z,25.07
2018-10-06T11:28:01.104Z,23.63
2018-10-06T11:30:30.059Z,24.63
2018-10-06T11:32:58.954Z,23.93
2018-10-06T11:35:27.985Z,24.40
2018-10-06T11:37:56.888Z,24.67
2018-10-06T11:40:25.858Z,24.33
2018-10-06T11:42:54.862Z,23.40
2018-10-06T11:45:23.818Z,24.00
2018-10-06T11:47:52.696Z,24.17
2018-10-06T11:50:21.610Z,23.13
2018-10-06T11:52:50.430Z,22.83
2018-10-06T11:55:19.388Z,22.50
2018-10-06T11:57:48.302Z,22.23
2018-10-06T12:00:17.407Z,19.87
2018-10-06T12:02:52.708Z,19.67
2018-10-06T12:05:21.562Z,19.13
2018-10-06T12:07:50.592Z,18.90
2018-10-06T12:10:19.464Z,19.57
2018-10-06T12:12:48.333Z,17.77
2018-10-06T12:15:17.299Z,17.70
2018-10-06T12:17:46.169Z,16.57
2018-10-06T12:20:16.173Z,17.43
2018-10-06T12:22:45.039Z,16.90
2018-10-06T12:25:14.098Z,16.30
2018-10-06T12:27:43.065Z,15.73
2018-10-06T12:30:18.715Z,17.03
2018-10-06T12:32:47.598Z,14.67
2018-10-06T12:35:16.598Z,15.90
2018-10-06T12:37:45.400Z,13.80
2018-10-06T12:40:14.315Z,11.53
2018-10-06T12:42:43.405Z,10.20
2018-10-06T12:45:12.324Z,10.70
2018-10-06T12:47:41.280Z,11.33
2018-10-06T12:50:10.251Z,11.00
2018-10-06T12:52:39.168Z,10.70
2018-10-06T12:55:08.023Z,9.97
2018-10-06T12:57:36.979Z,8.80
2018-10-06T13:00:06.418Z,8.10
2018-10-06T13:02:35.751Z,8.03
2018-10-06T13:05:04.769Z,7.00
2018-10-06T13:07:34.780Z,7.90
2018-10-06T13:10:03.762Z,8.90
2018-10-06T13:12:32.630Z,9.37
2018-10-06T13:15:01.651Z,9.33
2018-10-06T13:17:30.538Z,9.13
2018-10-06T13:19:59.424Z,9.83
2018-10-06T13:22:28.418Z,11.07
2018-10-06T13:24:57.308Z,11.23
2018-10-06T13:27:26.306Z,10.20
2018-10-06T13:29:55.214Z,11.37
2018-10-06T13:32:24.209Z,11.27
2018-10-06T13:34:53.113Z,11.33
2018-10-06T13:37:22.174Z,12.43
2018-10-06T13:39:51.178Z,11.27
2018-10-06T13:42:20.125Z,11.63
2018-10-06T13:44:48.986Z,12.57
2018-10-06T13:47:18.982Z,11.30
2018-10-06T13:49:47.982Z,11.67
2018-10-06T13:52:17.651Z,11.77
2018-10-06T13:54:46.518Z,9.30
2018-10-06T13:57:15.515Z,9.93
2018-10-06T13:59:44.490Z,9.97
2018-10-06T14:02:13.498Z,9.43
2018-10-06T14:04:42.434Z,9.30
2018-10-06T14:07:11.426Z,7.77
2018-10-06T14:09:40.292Z,7.67
2018-10-06T14:12:09.211Z,7.00
2018-10-06T14:14:38.212Z,6.80
2018-10-06T14:18:11.632Z,7.27
2018-10-06T14:20:40.913Z,6.47
2018-10-06T14:23:10.073Z,7.33
2018-10-06T14:25:38.978Z,6.97
2018-10-06T14:28:07.995Z,7.43
2018-10-06T14:30:36.970Z,8.50
2018-10-06T14:33:06.153Z,7.47
2018-10-06T14:35:35.144Z,6.57
2018-10-06T14:38:04.255Z,7.23
2018-10-06T14:40:33.300Z,6.70
2018-10-06T14:43:02.537Z,7.30
2018-10-06T14:45:31.529Z,7.60
2018-10-06T14:48:00.463Z,7.87
2018-10-06T14:50:30.463Z,7.57
2018-10-06T14:52:59.435Z,8.20
2018-10-06T14:55:29.356Z,8.10
2018-10-06T14:58:00.350Z,6.27
2018-10-06T15:00:29.304Z,6.90
2018-10-06T15:02:58.295Z,7.13
2018-10-06T15:05:27.286Z,7.53
2018-10-06T15:07:56.508Z,7.10
2018-10-06T15:10:25.508Z,7.50
2018-10-06T15:12:55.646Z,7.77
2018-10-06T15:15:24.624Z,7.77
2018-10-06T15:17:53.617Z,7.63
2018-10-06T15:20:22.750Z,7.83
2018-10-06T15:22:51.786Z,9.00
2018-10-06T15:25:20.669Z,8.50
2018-10-06T15:27:49.941Z,9.57
2018-10-06T15:30:18.883Z,9.47
2018-10-06T15:32:47.907Z,10.20
2018-10-06T15:35:16.858Z,9.63
2018-10-06T15:37:45.871Z,8.83
2018-10-06T15:40:14.956Z,9.47
2018-10-06T15:42:44.086Z,10.23
2018-10-06T15:45:12.913Z,10.03
2018-10-06T15:47:42.042Z,9.67
2018-10-06T15:50:11.120Z,10.30
2018-10-06T15:52:42.176Z,10.73
2018-10-06T15:55:13.343Z,11.13
2018-10-06T15:57:43.459Z,10.63
2018-10-06T16:00:13.457Z,10.53
2018-10-06T16:02:43.554Z,10.63
2018-10-06T16:05:12.559Z,10.93
2018-10-06T16:07:41.545Z,11.60
2018-10-06T16:10:10.592Z,11.63
2018-10-06T16:12:39.684Z,11.67
2018-10-06T16:15:08.660Z,11.63
2018-10-06T16:17:37.636Z,12.33
2018-10-06T16:20:06.663Z,13.50
2018-10-06T16:22:35.673Z,14.33
2018-10-06T16:25:04.657Z,14.37
2018-10-06T16:27:35.923Z,15.57
2018-10-06T16:30:05.987Z,15.90
2018-10-06T16:32:35.074Z,16.17
2018-10-06T16:35:04.125Z,16.03
2018-10-06T16:37:33.239Z,16.50
2018-10-06T16:40:04.405Z,17.63
2018-10-06T16:42:33.545Z,18.20
2018-10-06T16:45:02.657Z,17.80
2018-10-06T16:47:31.846Z,17.00
2018-10-06T16:50:00.809Z,17.67
2018-10-06T16:52:29.841Z,17.63
2018-10-06T16:54:58.792Z,18.37
2018-10-06T16:57:28.010Z,19.80
2018-10-06T16:59:57.049Z,19.17
2018-10-06T17:02:26.038Z,17.53
2018-10-06T17:04:57.022Z,18.13
2018-10-06T17:07:26.118Z,18.07
2018-10-06T17:09:56.436Z,19.17
2018-10-06T17:12:25.635Z,17.90
2018-10-06T17:14:54.720Z,18.63
2018-10-06T17:17:24.803Z,19.43
2018-10-06T17:19:54.963Z,19.07
2018-10-06T17:22:23.879Z,19.33
2018-10-06T17:24:52.995Z,19.13
2018-10-06T17:27:22.204Z,20.40
2018-10-06T17:29:51.248Z,20.37
2018-10-06T17:32:22.406Z,20.57
2018-10-06T17:34:51.405Z,19.90
2018-10-06T17:37:20.384Z,22.07
2018-10-06T17:39:50.535Z,22.17
2018-10-06T17:42:19.617Z,22.40
2018-10-06T17:44:48.856Z,22.40
2018-10-06T17:47:18.113Z,24.10
2018-10-06T17:49:47.255Z,23.70
2018-10-06T17:52:17.320Z,24.27
2018-10-06T17:54:46.264Z,27.00
2018-10-06T17:57:15.174Z,28.40
2018-10-06T17:59:44.915Z,26.57
2018-10-06T18:02:13.873Z,28.50
2018-10-06T18:04:42.759Z,29.90
2018-10-06T18:07:11.668Z,31.23
2018-10-06T18:09:40.632Z,34.60
2018-10-06T18:12:15.291Z,33.87
2018-10-06T18:14:44.514Z,34.63
2018-10-06T18:17:13.458Z,37.13
2018-10-06T18:19:42.482Z,37.90
2018-10-06T18:22:11.620Z,37.07
2018-10-06T18:24:40.612Z,37.77
2018-10-06T18:27:09.627Z,39.87
2018-10-06T18:29:38.661Z,39.93
2018-10-06T18:32:13.190Z,39.23
2018-10-06T18:34:47.722Z,41.50
2018-10-06T18:37:16.774Z,41.07
2018-10-06T18:39:45.628Z,43.47
2018-10-06T18:42:14.501Z,42.67
2018-10-06T18:44:43.394Z,46.30
2018-10-06T18:47:12.312Z,43.50
2018-10-06T18:49:41.263Z,45.40
2018-10-06T18:52:11.164Z,44.30
2018-10-06T18:54:40.261Z,46.47
2018-10-06T18:57:09.232Z,47.13
2018-10-06T18:59:38.143Z,46.80
2018-10-06T19:02:07.270Z,47.17
2018-10-06T19:04:36.239Z,45.97
2018-10-06T19:07:05.175Z,44.70
2018-10-06T19:09:34.143Z,46.07
2018-10-06T19:12:03.147Z,43.17
2018-10-06T19:14:32.287Z,44.30
2018-10-06T19:17:01.277Z,43.77
2018-10-06T19:19:30.165Z,43.60
2018-10-06T19:21:59.270Z,44.60
2018-10-06T19:24:28.170Z,43.10
2018-10-06T19:26:59.239Z,43.97
2018-10-06T19:29:28.139Z,44.43
2018-10-06T19:31:57.059Z,44.67
2018-10-06T19:34:26.021Z,45.13
2018-10-06T19:36:55.003Z,45.93
2018-10-06T19:39:23.909Z,46.10
2018-10-06T19:41:52.866Z,45.30
2018-10-06T19:44:21.874Z,45.60
2018-10-06T19:46:50.884Z,48.03
2018-10-06T19:49:19.886Z,43.70
2018-10-06T19:51:48.815Z,48.20
2018-10-06T19:54:17.772Z,47.67
2018-10-06T19:56:47.326Z,44.90
2018-10-06T19:59:16.214Z,44.80
2018-10-06T20:01:45.218Z,43.87
2018-10-06T20:04:14.284Z,43.00
2018-10-06T20:06:43.243Z,42.03
2018-10-06T20:09:12.646Z,37.67
2018-10-06T20:11:41.642Z,38.00
2018-10-06T20:14:10.538Z,37.23
2018-10-06T20:16:39.482Z,36.67
2018-10-06T20:19:10.872Z,37.23
2018-10-06T20:21:39.835Z,39.00
2018-10-06T20:24:08.767Z,34.53
2018-10-06T20:26:37.707Z,37.13
2018-10-06T20:29:06.806Z,36.07
2018-10-06T20:31:35.981Z,35.63
2018-10-06T20:34:04.919Z,34.70
2018-10-06T20:36:33.827Z,32.97
2018-10-06T20:39:02.791Z,34.43
2018-10-06T20:41:31.715Z,34.90
2018-10-06T20:44:00.675Z,33.80
2018-10-06T20:46:29.804Z,35.07
2018-10-06T20:48:58.687Z,33.30
2018-10-06T20:51:27.678Z,33.30
2018-10-06T20:53:56.639Z,32.73
2018-10-06T20:56:26.601Z,31.57
2018-10-06T20:58:55.915Z,27.60
2018-10-06T21:01:24.975Z,27.53
2018-10-06T21:03:55.069Z,26.47
2018-10-06T21:06:23.987Z,25.70
2018-10-06T21:08:53.062Z,24.47
2018-10-06T21:11:22.088Z,22.80
2018-10-06T21:13:51.079Z,23.00
2018-10-06T21:16:20.083Z,22.40
2018-10-06T21:18:49.075Z,22.73
2018-10-06T21:21:18.077Z,22.40
2018-10-06T21:23:47.015Z,19.90
2018-10-06T21:26:16.041Z,18.67
2018-10-06T21:28:46.950Z,15.37
2018-10-06T21:31:15.938Z,13.97
2018-10-06T21:33:44.966Z,11.97
2018-10-06T21:36:13.855Z,11.37
2018-10-06T21:38:43.041Z,9.70
2018-10-06T21:41:12.083Z,10.30
2018-10-06T21:43:41.159Z,9.93
2018-10-06T21:46:10.109Z,10.83
2018-10-06T21:48:39.088Z,9.80
2018-10-06T21:51:08.296Z,9.07
2018-10-06T21:53:37.232Z,8.07
2018-10-06T21:56:06.197Z,6.57
2018-10-06T21:58:36.137Z,5.63
2018-10-06T22:01:11.433Z,5.20
2018-10-06T22:03:40.984Z,4.53
2018-10-06T22:06:10.023Z,3.80
2018-10-06T22:08:39.302Z,3.07
2018-10-06T22:11:08.318Z,3.57
2018-10-06T22:13:37.289Z,2.70
2018-10-06T22:16:07.551Z,2.53
2018-10-06T22:18:36.513Z,2.03
2018-10-06T22:21:06.728Z,2.40
2018-10-06T22:23:35.884Z,1.90
2018-10-06T22:26:05.004Z,1.83
2018-10-06T22:28:34.998Z,2.33
2018-10-06T22:31:04.049Z,2.17
2018-10-06T22:33:32.961Z,2.30
2018-10-06T22:36:01.905Z,1.63
2018-10-06T22:38:30.918Z,1.50
2018-10-06T22:41:00.236Z,1.50
2018-10-06T22:43:29.192Z,1.43
2018-10-06T22:45:58.231Z,1.20
2018-10-06T22:48:27.129Z,1.60
2018-10-06T22:50:56.173Z,1.70
2018-10-06T22:53:25.225Z,2.30
2018-10-06T22:55:54.263Z,2.03
2018-10-06T22:58:24.306Z,1.60
2018-10-06T23:00:53.304Z,1.60
2018-10-06T23:03:22.280Z,1.70
2018-10-06T23:05:51.366Z,1.60
2018-10-06T23:08:20.376Z,1.40
2018-10-06T23:10:49.404Z,2.03
2018-10-06T23:13:18.565Z,2.03
2018-10-06T23:15:47.532Z,2.10
2018-10-06T23:18:16.589Z,1.90
2018-10-06T23:20:45.704Z,2.07
2018-10-06T23:23:14.839Z,1.90
2018-10-06T23:25:43.786Z,2.27
2018-10-06T23:28:12.803Z,2.50
2018-10-06T23:30:41.833Z,1.97
2018-10-06T23:33:11.126Z,1.53
2018-10-06T23:35:41.088Z,1.40
2018-10-06T23:38:10.192Z,1.57
2018-10-06T23:40:39.130Z,1.47
2018-10-06T23:43:08.109Z,1.70
2018-10-06T23:45:37.136Z,1.57
2018-10-06T23:48:06.211Z,1.90
2018-10-06T23:50:35.201Z,1.60
2018-10-06T23:53:04.165Z,1.80
2018-10-06T23:55:35.116Z,1.53
2018-10-06T23:58:04.109Z,1.90
